Time;durP1;ratioP1;P1;durP2;ratioP2;P2;SDS_P1;SDS_P2;PMS_P1;PMS_P2;Temp;Humidity;BMP_temperature;BMP_pressure;BME280_temperature;BME280_humidity;BME280_pressure;Samples;Min_cycle;Max_cycle;Signal;HPM_P1;HPM_P2
2021/12/26 00:00:28;;;;;;;12.57;7.67;;;;;;;-3.40;76.93;97157.31;6252842;28;20207;-69
2021/12/26 00:03:32;;;;;;;13.13;7.17;;;;;;;-3.41;77.14;97158.22;6224566;28;20243;-68
2021/12/26 00:06:34;;;;;;;11.80;6.80;;;;;;;-3.41;76.68;97153.91;6229283;28;20231;-69
2021/12/26 00:09:36;;;;;;;11.90;6.80;;;;;;;-3.40;76.78;97154.75;6251476;28;20613;-68
2021/12/26 00:12:38;;;;;;;11.40;6.30;;;;;;;-3.38;76.67;97147.78;6252189;28;20242;-68
2021/12/26 00:15:40;;;;;;;9.87;5.97;;;;;;;-3.38;76.95;97152.94;6251646;28;20243;-68
2021/12/26 00:18:45;;;;;;;11.37;6.40;;;;;;;-3.39;76.42;97149.50;6250858;28;20231;-74
2021/12/26 00:21:48;;;;;;;12.80;6.60;;;;;;;-3.39;76.07;97146.09;6253586;28;20233;-69
2021/12/26 00:24:50;;;;;;;12.60;6.90;;;;;;;-3.39;76.09;97156.41;6252800;28;20235;-71
2021/12/26 00:27:58;;;;;;;11.53;6.47;;;;;;;-3.45;75.81;97157.47;6252840;28;20326;-69
2021/12/26 00:31:00;;;;;;;10.90;6.97;;;;;;;-3.40;76.17;97154.75;6252424;28;20219;-68
2021/12/26 00:34:03;;;;;;;11.33;6.33;;;;;;;-3.37;76.28;97152.03;6227719;28;20236;-69
2021/12/26 00:37:06;;;;;;;13.03;6.50;;;;;;;-3.37;76.25;97159.78;6233244;28;20642;-68
2021/12/26 00:40:12;;;;;;;10.87;6.67;;;;;;;-3.43;75.56;97160.00;6252461;28;20796;-71
2021/12/26 00:43:14;;;;;;;12.90;6.90;;;;;;;-3.44;75.00;97160.88;6255392;28;20754;-68
2021/12/26 00:46:16;;;;;;;11.63;6.63;;;;;;;-3.42;75.43;97157.38;6256373;28;20231;-70
2021/12/26 00:49:18;;;;;;;11.83;6.73;;;;;;;-3.44;74.73;97159.16;6232903;28;20235;-68
2021/12/26 00:52:20;;;;;;;11.13;6.53;;;;;;;-3.44;74.71;97166.03;6241176;28;20313;-71
2021/12/26 00:55:23;;;;;;;10.33;6.50;;;;;;;-3.41;73.91;97165.97;6255174;28;20230;-69
2021/12/26 00:58:25;;;;;;;11.17;5.80;;;;;;;-3.39;74.48;97161.56;6255032;28;20778;-68
2021/12/26 01:01:27;;;;;;;13.93;7.57;;;;;;;-3.39;74.24;97164.97;6255175;28;20579;-69
2021/12/26 01:04:30;;;;;;;10.30;5.80;;;;;;;-3.40;73.70;97162.47;6240507;28;20719;-71
2021/12/26 01:07:45;;;;;;;13.63;7.00;;;;;;;-3.39;73.86;97164.13;6252308;28;20230;-70
2021/12/26 01:10:54;;;;;;;12.93;6.40;;;;;;;-3.44;73.03;97172.03;6238571;28;20598;-68
2021/12/26 01:14:04;;;;;;;13.93;6.37;;;;;;;-3.49;73.26;97173.06;6254389;28;20239;-68
2021/12/26 01:17:24;;;;;;;14.53;6.80;;;;;;;-3.51;72.67;97173.16;6254717;28;20227;-68
2021/12/26 01:20:50;;;;;;;10.37;6.20;;;;;;;-3.51;72.81;97169.72;6254865;28;20288;-69
2021/12/26 01:23:57;;;;;;;12.77;6.63;;;;;;;-3.50;72.67;97167.09;6256977;28;20227;-68
2021/12/26 01:26:59;;;;;;;12.57;5.87;;;;;;;-3.51;72.56;97173.16;6254127;28;20242;-69
2021/12/26 01:30:06;;;;;;;10.60;6.50;;;;;;;-3.53;72.08;97169.78;6230239;28;20223;-69
2021/12/26 01:33:14;;;;;;;11.63;6.23;;;;;;;-3.54;72.43;97162.94;6248887;28;20219;-69
2021/12/26 01:36:35;;;;;;;11.13;5.50;;;;;;;-3.53;72.43;97166.34;6234867;28;20714;-68
2021/12/26 01:39:55;;;;;;;7.70;5.40;;;;;;;-3.53;72.87;97161.19;6255691;28;20227;-70
2021/12/26 01:43:12;;;;;;;11.23;6.53;;;;;;;-3.51;72.28;97164.56;6253799;28;20238;-69
2021/12/26 01:46:19;;;;;;;12.17;6.63;;;;;;;-3.50;72.93;97164.53;6255537;28;20255;-68
2021/12/26 01:49:27;;;;;;;8.37;5.63;;;;;;;-3.54;72.44;97156.94;6231643;28;20242;-69
2021/12/26 01:52:29;;;;;;;9.87;6.17;;;;;;;-3.59;72.11;97161.41;6252396;28;20304;-69
2021/12/26 01:55:39;;;;;;;10.43;6.27;;;;;;;-3.59;72.38;97164.00;6254271;28;20247;-69
2021/12/26 01:58:41;;;;;;;10.30;5.83;;;;;;;-3.56;71.77;97154.41;6253811;28;20230;-69
2021/12/26 02:02:00;;;;;;;9.40;5.77;;;;;;;-3.55;71.83;97157.81;6255278;28;20235;-68
2021/12/26 02:05:02;;;;;;;9.93;5.67;;;;;;;-3.56;72.26;97153.56;6245117;28;20222;-69
2021/12/26 02:08:06;;;;;;;11.10;5.90;;;;;;;-3.58;72.49;97160.50;6255569;28;20227;-68
2021/12/26 02:11:08;;;;;;;8.13;4.87;;;;;;;-3.59;72.62;97164.78;6237342;28;20304;-70
2021/12/26 02:14:12;;;;;;;11.67;6.30;;;;;;;-3.59;72.41;97166.56;6242081;28;20247;-69
2021/12/26 02:17:41;;;;;;;10.30;6.43;;;;;;;-3.60;72.50;97172.63;6253988;28;20231;-68
2021/12/26 02:24:28;;;;;;;11.03;6.03;;;;;;;-3.55;72.84;97173.28;6230992;28;20228;-69
2021/12/26 02:27:33;;;;;;;11.93;6.40;;;;;;;-3.56;73.09;97176.75;6252804;28;20234;-71
2021/12/26 02:30:37;;;;;;;12.77;6.40;;;;;;;-3.55;72.86;97173.28;6255685;28;20323;-69
2021/12/26 02:33:39;;;;;;;10.70;6.10;;;;;;;-3.53;72.55;97181.81;6235184;28;20220;-68
2021/12/26 02:36:41;;;;;;;12.03;7.13;;;;;;;-3.53;72.57;97168.94;6211343;28;20302;-68
2021/12/26 02:39:43;;;;;;;13.90;7.47;;;;;;;-3.54;72.79;97168.09;6217136;28;20311;-69
2021/12/26 02:42:46;;;;;;;11.93;5.80;;;;;;;-3.56;72.28;97174.19;6239214;28;20219;-69
2021/12/26 02:45:49;;;;;;;10.17;5.93;;;;;;;-3.54;71.67;97178.41;6254045;28;20233;-69
2021/12/26 02:48:52;;;;;;;10.17;5.87;;;;;;;-3.64;70.68;97177.00;6233290;28;20234;-69
2021/12/26 02:51:55;;;;;;;9.63;5.93;;;;;;;-3.64;70.78;97177.00;6228897;28;20306;-69
2021/12/26 02:54:59;;;;;;;10.07;6.43;;;;;;;-3.68;70.78;97169.41;6252397;28;20265;-71
2021/12/26 02:58:05;;;;;;;9.47;5.73;;;;;;;-3.72;70.70;97173.84;6235234;28;20243;-69
2021/12/26 03:01:12;;;;;;;10.90;6.23;;;;;;;-3.70;70.76;97168.66;6252112;28;20235;-70
2021/12/26 03:04:15;;;;;;;12.07;6.60;;;;;;;-3.70;70.18;97173.81;6222637;28;20227;-69
2021/12/26 03:07:18;;;;;;;14.57;6.80;;;;;;;-3.76;69.87;97175.66;6240970;28;20608;-70
2021/12/26 03:10:24;;;;;;;12.57;6.73;;;;;;;-3.74;70.01;97176.47;6252773;28;20234;-70
2021/12/26 03:13:28;;;;;;;12.17;5.93;;;;;;;-3.72;69.78;97173.84;6251291;28;20702;-69
2021/12/26 03:16:30;;;;;;;10.73;6.87;;;;;;;-3.72;69.96;97179.84;6253145;28;20231;-71
2021/12/26 03:19:34;;;;;;;9.67;6.03;;;;;;;-3.79;68.65;97177.47;6251800;28;20351;-69
2021/12/26 03:22:36;;;;;;;11.30;6.47;;;;;;;-3.81;69.43;97169.00;6251928;28;20231;-69
2021/12/26 03:25:39;;;;;;;10.10;6.07;;;;;;;-3.78;69.48;97174.88;6251569;28;20318;-69
2021/12/26 03:28:41;;;;;;;10.33;6.53;;;;;;;-3.79;69.07;97174.91;6251540;28;20607;-68
2021/12/26 03:31:44;;;;;;;11.80;6.43;;;;;;;-3.80;69.94;97168.94;6251448;28;20579;-68
2021/12/26 03:34:49;;;;;;;9.47;5.60;;;;;;;-3.80;69.93;97162.94;6227146;28;20251;-73
2021/12/26 03:37:52;;;;;;;11.17;5.60;;;;;;;-3.88;69.54;97183.78;6238092;28;20269;-69
2021/12/26 03:41:15;;;;;;;8.27;5.80;;;;;;;-3.90;69.30;97177.84;6261326;28;20231;-69
2021/12/26 03:44:21;;;;;;;9.90;5.47;;;;;;;-3.92;68.92;97165.91;6252846;28;20215;-68
2021/12/26 03:47:23;;;;;;;10.60;5.63;;;;;;;-3.92;68.96;97159.00;6243420;28;20274;-70
2021/12/26 03:50:28;;;;;;;10.30;5.60;;;;;;;-3.91;69.41;97162.44;6227507;28;20223;-68
2021/12/26 03:53:30;;;;;;;9.83;5.57;;;;;;;-3.91;69.34;97167.59;6227475;28;20293;-70
2021/12/26 03:56:33;;;;;;;10.13;5.90;;;;;;;-3.93;68.81;97174.53;6247571;28;20274;-70
2021/12/26 03:59:49;;;;;;;10.87;5.80;;;;;;;-3.95;69.15;97179.72;6252823;28;20271;-69
2021/12/26 04:02:51;;;;;;;10.37;5.37;;;;;;;-3.91;69.89;97185.63;6250799;28;20593;-69
2021/12/26 04:05:54;;;;;;;10.83;5.63;;;;;;;-3.92;69.88;97184.78;6241627;28;20231;-68
2021/12/26 04:08:57;;;;;;;10.63;6.00;;;;;;;-3.94;69.00;97180.56;6250497;28;20231;-68
2021/12/26 04:12:00;;;;;;;10.03;5.37;;;;;;;-3.93;69.67;97188.25;6252251;28;20230;-68
2021/12/26 04:15:07;;;;;;;10.83;5.87;;;;;;;-3.88;69.65;97183.78;6210001;28;20234;-69
2021/12/26 04:18:09;;;;;;;9.33;5.77;;;;;;;-3.84;70.73;97180.22;6250314;28;20224;-69
2021/12/26 04:21:13;;;;;;;8.33;5.07;;;;;;;-3.82;70.06;97180.19;6235792;28;20674;-69
2021/12/26 04:24:26;;;;;;;10.03;5.90;;;;;;;-3.81;69.91;97179.28;6255877;28;20709;-70
2021/12/26 04:27:28;;;;;;;9.20;5.03;;;;;;;-3.80;69.99;97180.97;6250909;28;20658;-68
2021/12/26 04:30:30;;;;;;;9.83;5.83;;;;;;;-3.78;70.75;97185.19;6249627;28;20794;-69
2021/12/26 04:33:32;;;;;;;9.57;5.63;;;;;;;-3.77;70.01;97188.59;6235000;28;20311;-69
2021/12/26 04:36:35;;;;;;;8.80;5.30;;;;;;;-3.78;69.94;97190.34;6203666;28;20228;-69
2021/12/26 04:39:37;;;;;;;11.27;5.77;;;;;;;-3.80;70.60;97193.88;6216486;28;20262;-68
2021/12/26 04:42:41;;;;;;;10.33;4.93;;;;;;;-3.86;70.46;97184.59;6252680;28;20230;-68
2021/12/26 04:45:58;;;;;;;10.37;5.23;;;;;;;-3.90;70.73;97185.59;6251501;28;20223;-70
2021/12/26 04:49:22;;;;;;;8.00;5.27;;;;;;;-3.96;70.36;97196.06;6227443;28;20227;-68
2021/12/26 04:52:25;;;;;;;12.57;5.73;;;;;;;-4.01;70.23;97200.53;6226634;28;20235;-68
2021/12/26 04:55:28;;;;;;;8.90;5.17;;;;;;;-4.05;70.56;97195.50;6249510;28;20235;-68
2021/12/26 04:58:30;;;;;;;10.53;5.20;;;;;;;-4.09;70.75;97193.00;6250811;28;20270;-73
2021/12/26 05:01:34;;;;;;;9.43;5.37;;;;;;;-4.11;70.75;97188.81;6251088;28;20238;-70
2021/12/26 05:04:37;;;;;;;9.23;5.37;;;;;;;-4.14;70.53;97192.31;6249086;28;20239;-69
2021/12/26 05:07:40;;;;;;;8.50;4.90;;;;;;;-4.19;71.60;97188.19;6250362;28;20280;-68
2021/12/26 05:10:43;;;;;;;8.93;5.13;;;;;;;-4.19;71.13;97188.19;6234504;28;20253;-68
2021/12/26 05:13:45;;;;;;;8.70;5.57;;;;;;;-4.23;70.47;97202.06;6249344;28;20276;-69
2021/12/26 05:16:47;;;;;;;9.17;4.77;;;;;;;-4.25;70.63;97191.78;6250577;28;20489;-72
2021/12/26 05:19:50;;;;;;;8.37;4.60;;;;;;;-4.25;70.83;97189.22;6250217;28;20242;-68
2021/12/26 05:22:55;;;;;;;10.57;5.63;;;;;;;-4.26;70.82;97192.69;6256391;28;20226;-69
2021/12/26 05:25:58;;;;;;;9.70;5.20;;;;;;;-4.26;71.21;97191.84;6253917;28;20239;-69
2021/12/26 05:29:01;;;;;;;8.13;5.40;;;;;;;-4.25;70.98;97193.53;6260241;28;20235;-68
2021/12/26 05:32:04;;;;;;;8.10;4.77;;;;;;;-4.25;71.47;97194.38;6261496;28;20245;-68
2021/12/26 05:35:07;;;;;;;11.77;5.50;;;;;;;-4.27;72.32;97198.72;6226916;28;20239;-71
2021/12/26 05:38:09;;;;;;;10.60;5.30;;;;;;;-4.27;71.72;97214.16;6228943;28;20291;-69
2021/12/26 05:41:14;;;;;;;8.07;5.33;;;;;;;-4.30;71.70;97208.28;6211585;28;20234;-70
2021/12/26 05:44:28;;;;;;;7.47;4.37;;;;;;;-4.36;72.22;97211.88;6254114;28;20292;-70
2021/12/26 05:47:31;;;;;;;9.73;4.73;;;;;;;-4.37;72.87;97215.31;6246653;28;20238;-68
2021/12/26 05:50:38;;;;;;;8.13;4.77;;;;;;;-4.42;72.59;97209.47;6237954;28;20235;-69
2021/12/26 05:53:49;;;;;;;9.07;5.33;;;;;;;-4.44;72.47;97215.56;6254569;28;20227;-69
2021/12/26 05:56:52;;;;;;;9.20;4.70;;;;;;;-4.47;72.63;97213.91;6256179;28;20231;-68
2021/12/26 05:59:54;;;;;;;9.87;5.20;;;;;;;-4.49;72.62;97218.25;6254259;28;20234;-69
2021/12/26 06:02:57;;;;;;;9.73;5.87;;;;;;;-4.50;72.30;97209.72;6250706;28;20310;-69
2021/12/26 06:05:59;;;;;;;8.97;5.57;;;;;;;-4.50;71.92;97217.44;6236812;28;20707;-69
2021/12/26 06:09:09;;;;;;;10.27;5.47;;;;;;;-4.51;72.09;97220.03;6233338;28;20619;-69
2021/12/26 06:12:14;;;;;;;14.20;5.00;;;;;;;-4.53;72.58;97224.38;6234324;28;20220;-70
2021/12/26 06:15:16;;;;;;;12.30;5.70;;;;;;;-4.57;71.96;97226.19;6254261;28;20575;-68
2021/12/26 06:18:18;;;;;;;9.17;4.47;;;;;;;-4.59;71.76;97227.16;6206471;28;20230;-68
2021/12/26 06:21:44;;;;;;;8.40;4.73;;;;;;;-4.62;72.27;97219.50;6254153;28;20310;-69
2021/12/26 06:25:16;;;;;;;8.37;5.10;;;;;;;-4.70;72.47;97231.75;6253346;28;20238;-68
2021/12/26 06:28:30;;;;;;;9.63;5.13;;;;;;;-4.79;72.71;97234.56;6253000;28;20314;-69
2021/12/26 06:31:52;;;;;;;9.10;5.13;;;;;;;-4.87;72.60;97240.75;6254570;28;20242;-69
2021/12/26 06:35:19;;;;;;;8.33;4.33;;;;;;;-4.90;72.85;97245.16;6231227;28;20651;-70
2021/12/26 06:38:41;;;;;;;6.67;4.30;;;;;;;-4.93;73.36;97245.22;6253185;28;20232;-68
2021/12/26 06:42:04;;;;;;;8.87;5.20;;;;;;;-4.97;74.08;97246.16;6254553;28;20231;-68
2021/12/26 06:45:17;;;;;;;8.73;5.40;;;;;;;-5.02;73.88;97254.03;6251951;28;20218;-68
2021/12/26 06:48:41;;;;;;;6.83;4.07;;;;;;;-5.03;73.86;97252.31;6234731;28;20220;-69
2021/12/26 06:51:45;;;;;;;10.87;4.77;;;;;;;-5.05;74.45;97264.38;6244531;28;20261;-68
2021/12/26 06:54:48;;;;;;;9.50;4.77;;;;;;;-5.03;74.78;97261.78;6252745;28;20250;-69
2021/12/26 06:57:51;;;;;;;10.00;4.60;;;;;;;-5.07;74.71;97261.00;6255415;28;20238;-69
2021/12/26 07:00:53;;;;;;;11.13;5.43;;;;;;;-5.11;74.71;97269.69;6256817;28;20314;-69
2021/12/26 07:03:55;;;;;;;7.63;4.60;;;;;;;-5.16;74.51;97265.53;6243085;28;20211;-69
2021/12/26 07:07:00;;;;;;;10.37;5.07;;;;;;;-5.21;74.95;97269.06;6252470;28;20575;-68
2021/12/26 07:10:06;;;;;;;11.30;5.40;;;;;;;-5.22;74.73;97281.97;6252370;28;20224;-68
2021/12/26 07:13:08;;;;;;;7.23;4.23;;;;;;;-5.23;74.14;97277.69;6253549;28;20241;-70
2021/12/26 07:16:11;;;;;;;9.47;4.50;;;;;;;-5.21;74.66;97281.94;6252745;28;20266;-68
2021/12/26 07:19:15;;;;;;;8.20;4.90;;;;;;;-5.13;74.50;97268.03;6252223;28;20238;-69
2021/12/26 07:22:17;;;;;;;8.67;4.87;;;;;;;-5.04;74.89;97263.50;6252146;28;20231;-69
2021/12/26 07:25:19;;;;;;;9.87;4.83;;;;;;;-5.00;74.03;97267.69;6251098;28;20238;-68
2021/12/26 07:28:22;;;;;;;7.97;4.50;;;;;;;-4.96;73.71;97274.44;6253318;28;20237;-68
2021/12/26 07:31:48;;;;;;;10.73;4.80;;;;;;;-4.86;73.37;97275.03;6252581;28;20220;-68
2021/12/26 07:34:50;;;;;;;11.67;5.07;;;;;;;-4.75;73.28;97274.75;6214902;28;20233;-68
2021/12/26 07:37:55;;;;;;;9.13;4.67;;;;;;;-4.64;73.62;97283.03;6227234;28;20640;-69
2021/12/26 07:40:57;;;;;;;7.83;4.60;;;;;;;-4.57;73.26;97279.41;6248907;28;20247;-68
2021/12/26 07:44:07;;;;;;;7.93;4.20;;;;;;;-4.50;73.05;97279.22;6253008;28;20593;-68
2021/12/26 07:47:27;;;;;;;11.00;5.57;;;;;;;-4.39;72.13;97273.75;6245037;28;20232;-69
2021/12/26 07:50:33;;;;;;;8.37;4.23;;;;;;;-4.32;71.66;97272.72;6243750;28;20228;-68
2021/12/26 07:53:58;;;;;;;8.70;4.80;;;;;;;-4.19;71.23;97280.91;6252965;28;20758;-68
2021/12/26 07:57:19;;;;;;;9.40;4.83;;;;;;;-4.12;70.55;97278.16;6251800;28;20235;-69
2021/12/26 08:00:39;;;;;;;7.47;4.60;;;;;;;-4.02;69.84;97271.00;6252775;28;20235;-68
2021/12/26 08:04:00;;;;;;;11.20;5.13;;;;;;;-3.93;68.74;97278.44;6239264;28;20708;-68
2021/12/26 08:07:21;;;;;;;11.00;5.20;;;;;;;-3.80;67.03;97290.09;6240960;28;20222;-68
2021/12/26 08:10:23;;;;;;;9.30;5.43;;;;;;;-3.72;67.08;97284.69;6250863;28;20239;-70
2021/12/26 08:13:27;;;;;;;10.20;5.00;;;;;;;-3.65;66.66;97280.19;6249925;28;20235;-68
2021/12/26 08:16:29;;;;;;;9.20;5.33;;;;;;;-3.55;65.73;97277.28;6250797;28;20312;-69
2021/12/26 08:19:31;;;;;;;10.73;5.70;;;;;;;-3.50;64.66;97274.56;6251511;28;20242;-69
2021/12/26 08:22:33;;;;;;;10.20;5.70;;;;;;;-3.43;64.48;97282.06;6251090;28;20227;-68
2021/12/26 08:25:35;;;;;;;10.77;5.37;;;;;;;-3.39;64.38;97280.22;6252458;28;20785;-70
2021/12/26 08:28:37;;;;;;;12.23;5.93;;;;;;;-3.33;64.05;97277.47;6250238;28;20227;-69
2021/12/26 08:31:39;;;;;;;12.63;6.10;;;;;;;-3.35;64.11;97282.66;6250350;28;20223;-69
2021/12/26 08:34:42;;;;;;;10.47;6.73;;;;;;;-3.27;64.49;97276.41;6229177;28;20235;-68
2021/12/26 08:37:46;;;;;;;11.83;6.33;;;;;;;-3.23;64.03;97276.28;6237611;28;20266;-70
2021/12/26 08:40:50;;;;;;;13.53;7.47;;;;;;;-3.18;63.97;97283.84;6249507;28;20231;-72
2021/12/26 08:43:53;;;;;;;13.03;6.60;;;;;;;-3.21;63.16;97282.22;6252116;28;20226;-68
2021/12/26 08:46:55;;;;;;;13.07;7.17;;;;;;;-3.19;62.76;97282.16;6248108;28;20228;-71
2021/12/26 08:49:58;;;;;;;12.40;7.40;;;;;;;-3.11;62.86;97273.31;6227124;28;20239;-68
2021/12/26 08:53:00;;;;;;;13.40;6.97;;;;;;;-3.08;62.61;97274.91;6248269;28;20234;-68
2021/12/26 08:56:03;;;;;;;11.60;6.90;;;;;;;-3.10;62.32;97277.56;6253554;28;20316;-69
2021/12/26 08:59:07;;;;;;;16.20;7.17;;;;;;;-3.00;61.51;97275.53;6255941;28;20238;-68
2021/12/26 09:02:10;;;;;;;11.20;6.03;;;;;;;-2.87;61.01;97271.63;6262671;28;20238;-69
2021/12/26 09:05:13;;;;;;;14.13;6.57;;;;;;;-2.83;61.02;97275.81;6243641;28;20672;-69
2021/12/26 09:08:15;;;;;;;13.30;6.40;;;;;;;-2.81;60.47;97286.09;6255541;28;20373;-69
2021/12/26 09:11:17;;;;;;;12.03;6.40;;;;;;;-2.74;61.42;97288.41;6255082;28;20256;-69
2021/12/26 09:14:19;;;;;;;14.83;7.13;;;;;;;-2.66;61.69;97291.56;6256942;28;20235;-69
2021/12/26 09:17:21;;;;;;;15.57;7.60;;;;;;;-2.60;62.19;97295.69;6256879;28;20234;-69
2021/12/26 09:20:24;;;;;;;12.93;7.20;;;;;;;-2.54;62.38;97290.28;6255100;28;20241;-68
2021/12/26 09:23:26;;;;;;;15.13;7.43;;;;;;;-2.48;62.45;97284.91;6255615;28;20253;-69
2021/12/26 09:26:28;;;;;;;13.47;7.47;;;;;;;-2.46;62.05;97280.53;6253507;28;20310;-69
2021/12/26 09:29:31;;;;;;;11.93;6.70;;;;;;;-2.36;62.46;97273.28;6255330;28;20855;-68
2021/12/26 09:32:34;;;;;;;12.97;7.03;;;;;;;-2.29;62.36;97273.00;6256382;28;20232;-69
2021/12/26 09:35:37;;;;;;;14.80;7.27;;;;;;;-2.16;62.45;97275.16;6211150;28;20737;-71
2021/12/26 09:38:39;;;;;;;16.60;7.33;;;;;;;-2.05;61.75;97283.38;6231651;28;20558;-69
2021/12/26 09:41:41;;;;;;;15.80;7.87;;;;;;;-1.98;61.86;97280.50;6253995;28;20718;-68
2021/12/26 09:44:43;;;;;;;16.23;8.50;;;;;;;-1.94;61.66;97291.59;6255749;28;20231;-69
2021/12/26 09:47:49;;;;;;;14.03;7.63;;;;;;;-1.91;62.24;97286.31;6244715;28;20711;-69
2021/12/26 09:50:53;;;;;;;16.33;8.47;;;;;;;-2.08;62.36;97286.06;6231484;28;20231;-68
2021/12/26 09:53:55;;;;;;;13.37;8.10;;;;;;;-2.12;62.59;97281.91;6243238;28;20241;-69
2021/12/26 09:57:03;;;;;;;15.70;7.70;;;;;;;-2.06;61.77;97281.69;6254083;28;20254;-69
2021/12/26 10:00:30;;;;;;;12.57;8.50;;;;;;;-2.06;61.29;97276.50;6254077;28;20725;-68
2021/12/26 10:03:35;;;;;;;16.10;8.73;;;;;;;-2.15;60.52;97272.53;6251335;28;20281;-69
2021/12/26 10:06:37;;;;;;;18.37;8.93;;;;;;;-2.37;60.80;97267.28;6253632;28;20219;-69
2021/12/26 10:09:44;;;;;;;16.23;9.03;;;;;;;-2.51;62.18;97266.94;6255723;28;20219;-68
2021/12/26 10:12:46;;;;;;;22.40;9.50;;;;;;;-2.38;61.28;97268.19;6242226;28;20231;-70
2021/12/26 10:15:49;;;;;;;17.40;8.80;;;;;;;-2.39;60.88;97261.31;6259082;28;20261;-70
2021/12/26 10:18:53;;;;;;;16.03;9.30;;;;;;;-2.39;61.41;97260.47;6254859;28;20227;-68
2021/12/26 10:22:00;;;;;;;21.90;8.77;;;;;;;-2.33;61.64;97263.72;6254139;28;20230;-69
2021/12/26 10:25:15;;;;;;;16.90;8.67;;;;;;;-2.21;61.12;97262.44;6253942;28;20285;-69
2021/12/26 10:28:17;;;;;;;15.10;8.50;;;;;;;-2.13;60.69;97252.66;6255211;28;20238;-69
2021/12/26 10:31:19;;;;;;;18.93;9.77;;;;;;;-2.14;61.28;97256.13;6254806;28;20573;-68
2021/12/26 10:34:44;;;;;;;17.67;9.50;;;;;;;-2.30;60.98;97253.28;6228672;28;20231;-69
2021/12/26 10:37:50;;;;;;;17.67;9.97;;;;;;;-2.29;60.82;97254.09;6234283;28;20231;-70
2021/12/26 10:40:52;;;;;;;17.00;9.13;;;;;;;-2.20;61.35;97248.59;6252247;28;20216;-68
2021/12/26 10:43:56;;;;;;;20.50;11.37;;;;;;;-2.27;61.47;97252.28;6253920;28;21315;-69
2021/12/26 10:47:05;;;;;;;16.83;9.60;;;;;;;-2.39;60.77;97251.00;6250986;28;20247;-69
2021/12/26 10:50:15;;;;;;;16.80;9.70;;;;;;;-2.38;61.24;97249.25;6239702;28;20226;-69
2021/12/26 10:53:16;;;;;;;19.97;9.83;;;;;;;-2.42;61.40;97251.13;6252571;28;20774;-72
2021/12/26 10:56:21;;;;;;;19.83;10.43;;;;;;;-2.52;61.35;97244.59;6253004;28;20225;-68
2021/12/26 10:59:23;;;;;;;21.40;10.00;;;;;;;-2.63;61.91;97252.72;6254279;28;20234;-69
2021/12/26 11:02:29;;;;;;;20.20;11.30;;;;;;;-2.63;61.85;97242.38;6253788;28;20911;-68
2021/12/26 11:05:37;;;;;;;17.47;9.47;;;;;;;-2.65;63.21;97244.19;6237110;28;20278;-68
2021/12/26 11:08:46;;;;;;;22.37;10.73;;;;;;;-2.72;63.94;97252.19;6252663;28;20240;-69
2021/12/26 11:12:09;;;;;;;22.20;10.73;;;;;;;-2.76;64.83;97248.88;6253393;28;20882;-69
2021/12/26 11:15:13;;;;;;;20.73;11.20;;;;;;;-2.83;64.86;97244.81;6253197;28;20306;-71
2021/12/26 11:18:18;;;;;;;20.77;10.40;;;;;;;-2.86;65.11;97249.22;6251600;28;20264;-69
2021/12/26 11:21:20;;;;;;;18.20;10.03;;;;;;;-2.93;63.92;97246.03;6253166;28;20218;-69
2021/12/26 11:24:22;;;;;;;24.10;11.77;;;;;;;-2.89;65.37;97241.59;6251610;28;20223;-68
2021/12/26 11:27:25;;;;;;;26.73;12.13;;;;;;;-2.90;65.44;97235.59;6251753;28;20227;-69
2021/12/26 11:30:27;;;;;;;30.30;12.77;;;;;;;-2.91;65.84;97236.50;6252130;28;20238;-69
2021/12/26 11:33:30;;;;;;;23.40;11.57;;;;;;;-2.85;65.82;97225.09;6238189;28;20228;-72
2021/12/26 11:36:32;;;;;;;22.53;11.70;;;;;;;-2.87;64.47;97219.16;6217021;28;20232;-69
2021/12/26 11:39:59;;;;;;;25.83;11.67;;;;;;;-2.86;64.72;97215.66;6235374;28;20280;-68
2021/12/26 11:43:52;;;;;;;22.37;11.37;;;;;;;-2.85;64.71;97222.53;6259892;28;20266;-68
2021/12/26 11:47:40;;;;;;;23.13;12.47;;;;;;;-2.74;64.52;97210.09;6247213;28;20528;-67
2021/12/26 11:51:17;;;;;;;21.03;11.43;;;;;;;-2.66;65.25;97208.06;6228530;28;20240;-68
2021/12/26 11:55:19;;;;;;;21.77;13.13;;;;;;;-2.68;65.04;97208.13;6241511;28;20280;-68
2021/12/26 11:58:43;;;;;;;30.23;13.87;;;;;;;-2.65;64.52;97212.34;6252202;28;20382;-68
2021/12/26 12:01:47;;;;;;;27.80;13.50;;;;;;;-2.68;64.32;97210.69;6256971;28;20234;-68
2021/12/26 12:05:18;;;;;;;25.83;13.50;;;;;;;-2.55;64.86;97215.44;6246291;28;20234;-68
2021/12/26 12:08:22;;;;;;;23.67;13.03;;;;;;;-2.36;65.60;97219.03;6252234;28;20230;-68
2021/12/26 12:11:24;;;;;;;25.63;13.70;;;;;;;-2.26;65.02;97216.06;6250723;28;20228;-68
2021/12/26 12:14:47;;;;;;;31.83;14.10;;;;;;;-2.21;65.22;97215.06;6249931;28;20238;-69
2021/12/26 12:18:09;;;;;;;28.33;14.53;;;;;;;-2.32;64.64;97220.63;6253252;28;20757;-68
2021/12/26 12:21:13;;;;;;;25.03;13.87;;;;;;;-2.33;65.38;97213.75;6251950;28;20234;-69
2021/12/26 12:24:24;;;;;;;29.30;14.43;;;;;;;-2.35;65.52;97212.97;6251550;28;20215;-68
2021/12/26 12:27:27;;;;;;;27.30;15.13;;;;;;;-2.37;65.46;97215.59;6251649;28;20228;-68
2021/12/26 12:30:29;;;;;;;31.17;13.87;;;;;;;-2.41;65.72;97208.03;6236793;28;20237;-69
2021/12/26 12:33:32;;;;;;;30.03;14.93;;;;;;;-2.41;65.13;97203.72;6241111;28;20239;-69
2021/12/26 12:36:38;;;;;;;28.97;15.47;;;;;;;-2.35;65.33;97203.47;6228929;28;20270;-69
2021/12/26 12:39:41;;;;;;;35.10;16.93;;;;;;;-2.26;65.76;97202.28;6249435;28;20284;-69
2021/12/26 12:43:04;;;;;;;32.17;15.40;;;;;;;-2.25;65.47;97199.66;6255487;28;20230;-69
2021/12/26 12:46:09;;;;;;;28.30;14.80;;;;;;;-2.26;66.39;97192.81;6256885;28;20235;-69
2021/12/26 12:49:11;;;;;;;30.50;15.27;;;;;;;-2.36;66.99;97204.38;6235531;28;20235;-69
2021/12/26 12:52:43;;;;;;;32.13;15.30;;;;;;;-2.44;67.96;97213.31;6236679;28;20734;-69
2021/12/26 12:55:47;;;;;;;29.30;15.53;;;;;;;-2.63;67.94;97211.41;6240576;28;20222;-69
2021/12/26 12:58:49;;;;;;;33.73;16.50;;;;;;;-2.64;68.76;97208.88;6255279;28;20238;-70
2021/12/26 13:02:08;;;;;;;34.07;16.40;;;;;;;-2.64;68.69;97208.88;6256423;28;20273;-69
2021/12/26 13:05:10;;;;;;;37.03;16.97;;;;;;;-2.70;68.87;97204.78;6234859;28;20228;-69
2021/12/26 13:08:19;;;;;;;29.73;15.93;;;;;;;-2.72;69.68;97208.31;6256726;28;20300;-69
2021/12/26 13:11:21;;;;;;;35.30;16.03;;;;;;;-2.83;69.82;97210.41;6254916;28;20231;-68
2021/12/26 13:14:36;;;;;;;33.77;16.23;;;;;;;-3.03;70.28;97216.25;6255077;28;20239;-68
2021/12/26 13:17:41;;;;;;;35.03;17.13;;;;;;;-3.10;70.88;97219.94;6256262;28;20239;-69
2021/12/26 13:20:43;;;;;;;31.90;16.10;;;;;;;-3.03;70.33;97221.41;6254842;28;20312;-68
2021/12/26 13:23:46;;;;;;;35.77;16.83;;;;;;;-2.98;71.99;97228.09;6252775;28;20226;-70
2021/12/26 13:26:48;;;;;;;36.83;17.43;;;;;;;-3.01;71.88;97224.81;6256266;28;20224;-68
2021/12/26 13:29:52;;;;;;;33.60;16.63;;;;;;;-3.02;71.90;97225.69;6255429;28;20216;-69
2021/12/26 13:32:55;;;;;;;36.33;17.07;;;;;;;-3.04;72.44;97228.31;6251727;28;20216;-68
2021/12/26 13:35:59;;;;;;;41.80;19.33;;;;;;;-3.11;72.73;97228.59;6231731;28;20730;-69
2021/12/26 13:39:02;;;;;;;38.87;17.33;;;;;;;-3.09;73.10;97232.78;6253318;28;20244;-69
2021/12/26 13:42:09;;;;;;;36.97;17.30;;;;;;;-3.02;72.89;97229.13;6253625;28;20643;-69
2021/12/26 13:45:11;;;;;;;42.80;19.63;;;;;;;-3.07;72.85;97223.25;6255316;28;20225;-70
2021/12/26 13:48:33;;;;;;;40.33;18.10;;;;;;;-3.12;74.27;97222.56;6240977;28;20219;-69
2021/12/26 13:51:41;;;;;;;34.90;18.73;;;;;;;-3.16;73.62;97228.72;6243529;28;20302;-70
2021/12/26 13:54:49;;;;;;;30.80;17.83;;;;;;;-3.25;73.95;97230.78;6255175;28;20220;-69
2021/12/26 13:58:08;;;;;;;36.63;17.80;;;;;;;-3.21;74.69;97240.09;6261298;28;20242;-68
2021/12/26 14:01:11;;;;;;;32.20;17.60;;;;;;;-3.21;74.32;97232.38;6253437;28;20235;-69
2021/12/26 14:04:13;;;;;;;37.97;17.83;;;;;;;-3.15;74.84;97238.16;6243341;28;20227;-70
2021/12/26 14:07:25;;;;;;;37.37;18.10;;;;;;;-3.15;74.84;97233.00;6254855;28;20229;-69
2021/12/26 14:10:27;;;;;;;41.83;21.10;;;;;;;-3.13;74.82;97232.94;6253858;28;20234;-68
2021/12/26 14:13:31;;;;;;;46.40;21.17;;;;;;;-3.18;75.78;97240.81;6254476;28;20235;-69
2021/12/26 14:16:35;;;;;;;44.10;19.77;;;;;;;-3.17;76.45;97239.09;6254091;28;20227;-68
2021/12/26 14:19:37;;;;;;;44.57;20.63;;;;;;;-3.20;76.30;97241.78;6255861;28;20239;-69
2021/12/26 14:22:39;;;;;;;42.50;19.67;;;;;;;-3.16;76.74;97246.78;6254555;28;20231;-69
2021/12/26 14:25:41;;;;;;;34.37;18.07;;;;;;;-3.13;76.16;97249.28;6253737;28;20223;-69
2021/12/26 14:28:54;;;;;;;42.60;19.90;;;;;;;-3.07;76.58;97253.38;6253466;28;20231;-69
2021/12/26 14:31:57;;;;;;;45.20;20.83;;;;;;;-3.07;76.42;97253.38;6253452;28;20237;-68